sensor_id;sensor_type;location;lat;lon;timestamp;P1;durP1;ratioP1;P2;durP2;ratioP2
37781;SDS011;23621;50.878;4.584;2022-12-15T00:02:01;30.83;;;18.95;;
37781;SDS011;23621;50.878;4.584;2022-12-15T00:04:47;31.73;;;20.98;;
37781;SDS011;23621;50.878;4.584;2022-12-15T00:07:33;35.60;;;20.77;;
37781;SDS011;23621;50.878;4.584;2022-12-15T00:10:19;37.45;;;21.83;;
37781;SDS011;23621;50.878;4.584;2022-12-15T00:13:11;35.05;;;20.90;;
37781;SDS011;23621;50.878;4.584;2022-12-15T00:15:58;31.88;;;20.45;;
37781;SDS011;23621;50.878;4.584;2022-12-15T00:18:44;34.95;;;21.00;;
37781;SDS011;23621;50.878;4.584;2022-12-15T00:21:29;33.95;;;21.92;;
37781;SDS011;23621;50.878;4.584;2022-12-15T00:24:15;32.30;;;19.95;;
37781;SDS011;23621;50.878;4.584;2022-12-15T00:27:01;32.88;;;20.63;;
37781;SDS011;23621;50.878;4.584;2022-12-15T00:29:46;33.40;;;21.77;;
37781;SDS011;23621;50.878;4.584;2022-12-15T00:32:32;33.60;;;20.75;;
37781;SDS011;23621;50.878;4.584;2022-12-15T00:35:17;30.85;;;21.48;;
37781;SDS011;23621;50.878;4.584;2022-12-15T00:38:09;33.22;;;21.85;;
37781;SDS011;23621;50.878;4.584;2022-12-15T00:40:57;35.05;;;22.10;;
37781;SDS011;23621;50.878;4.584;2022-12-15T00:43:31;33.30;;;21.67;;
37781;SDS011;23621;50.878;4.584;2022-12-15T00:46:00;33.92;;;21.70;;
37781;SDS011;23621;50.878;4.584;2022-12-15T00:48:47;33.88;;;21.92;;
37781;SDS011;23621;50.878;4.584;2022-12-15T00:51:14;32.65;;;21.55;;
37781;SDS011;23621;50.878;4.584;2022-12-15T00:53:41;38.20;;;22.02;;
37781;SDS011;23621;50.878;4.584;2022-12-15T00:56:27;35.85;;;22.33;;
37781;SDS011;23621;50.878;4.584;2022-12-15T00:59:13;37.63;;;22.38;;
37781;SDS011;23621;50.878;4.584;2022-12-15T01:01:59;35.28;;;21.35;;
37781;SDS011;23621;50.878;4.584;2022-12-15T01:04:46;36.35;;;22.90;;
37781;SDS011;23621;50.878;4.584;2022-12-15T01:07:31;31.52;;;21.38;;
37781;SDS011;23621;50.878;4.584;2022-12-15T01:10:18;35.20;;;22.10;;
37781;SDS011;23621;50.878;4.584;2022-12-15T01:13:04;37.22;;;23.83;;
37781;SDS011;23621;50.878;4.584;2022-12-15T01:15:49;37.22;;;23.05;;
37781;SDS011;23621;50.878;4.584;2022-12-15T01:18:35;35.17;;;21.20;;
37781;SDS011;23621;50.878;4.584;2022-12-15T01:21:20;37.90;;;22.35;;
37781;SDS011;23621;50.878;4.584;2022-12-15T01:23:50;37.60;;;22.10;;
37781;SDS011;23621;50.878;4.584;2022-12-15T01:26:17;31.45;;;22.17;;
37781;SDS011;23621;50.878;4.584;2022-12-15T01:28:44;40.88;;;24.08;;
37781;SDS011;23621;50.878;4.584;2022-12-15T01:31:11;37.50;;;22.75;;
37781;SDS011;23621;50.878;4.584;2022-12-15T01:33:39;32.90;;;21.83;;
37781;SDS011;23621;50.878;4.584;2022-12-15T01:36:08;38.90;;;22.42;;
37781;SDS011;23621;50.878;4.584;2022-12-15T01:38:36;36.95;;;23.10;;
37781;SDS011;23621;50.878;4.584;2022-12-15T01:41:04;39.10;;;23.25;;
37781;SDS011;23621;50.878;4.584;2022-12-15T01:43:35;38.00;;;23.45;;
37781;SDS011;23621;50.878;4.584;2022-12-15T01:48:33;37.90;;;21.90;;
37781;SDS011;23621;50.878;4.584;2022-12-15T01:56:25;38.10;;;22.75;;
37781;SDS011;23621;50.878;4.584;2022-12-15T01:59:01;33.08;;;21.85;;
37781;SDS011;23621;50.878;4.584;2022-12-15T02:01:30;33.45;;;21.83;;
37781;SDS011;23621;50.878;4.584;2022-12-15T02:03:57;41.22;;;23.70;;
37781;SDS011;23621;50.878;4.584;2022-12-15T02:06:24;43.10;;;24.90;;
37781;SDS011;23621;50.878;4.584;2022-12-15T02:08:53;40.38;;;23.48;;
37781;SDS011;23621;50.878;4.584;2022-12-15T02:14:02;39.65;;;24.40;;
37781;SDS011;23621;50.878;4.584;2022-12-15T02:16:34;34.70;;;22.73;;
37781;SDS011;23621;50.878;4.584;2022-12-15T02:27:23;38.92;;;23.95;;
37781;SDS011;23621;50.878;4.584;2022-12-15T02:35:56;38.10;;;22.50;;
37781;SDS011;23621;50.878;4.584;2022-12-15T02:38:30;42.97;;;24.65;;
37781;SDS011;23621;50.878;4.584;2022-12-15T02:41:01;41.50;;;24.67;;
37781;SDS011;23621;50.878;4.584;2022-12-15T02:43:30;38.25;;;22.75;;
37781;SDS011;23621;50.878;4.584;2022-12-15T02:51:34;43.97;;;24.65;;
37781;SDS011;23621;50.878;4.584;2022-12-15T02:54:21;43.67;;;23.50;;
37781;SDS011;23621;50.878;4.584;2022-12-15T02:59:41;39.70;;;24.38;;
37781;SDS011;23621;50.878;4.584;2022-12-15T03:02:09;42.55;;;24.02;;
37781;SDS011;23621;50.878;4.584;2022-12-15T03:04:38;44.45;;;26.45;;
37781;SDS011;23621;50.878;4.584;2022-12-15T03:07:08;44.70;;;25.02;;
37781;SDS011;23621;50.878;4.584;2022-12-15T03:09:35;40.65;;;25.15;;
37781;SDS011;23621;50.878;4.584;2022-12-15T03:12:03;46.13;;;26.38;;
37781;SDS011;23621;50.878;4.584;2022-12-15T03:14:30;43.22;;;25.98;;
37781;SDS011;23621;50.878;4.584;2022-12-15T03:16:57;38.00;;;25.45;;
37781;SDS011;23621;50.878;4.584;2022-12-15T03:19:24;42.75;;;25.10;;
37781;SDS011;23621;50.878;4.584;2022-12-15T03:21:51;48.15;;;26.80;;
37781;SDS011;23621;50.878;4.584;2022-12-15T03:24:18;38.70;;;23.75;;
37781;SDS011;23621;50.878;4.584;2022-12-15T03:26:45;42.13;;;25.13;;
37781;SDS011;23621;50.878;4.584;2022-12-15T03:29:15;43.72;;;25.42;;
37781;SDS011;23621;50.878;4.584;2022-12-15T03:31:43;38.72;;;25.05;;
37781;SDS011;23621;50.878;4.584;2022-12-15T03:34:10;40.13;;;24.90;;
37781;SDS011;23621;50.878;4.584;2022-12-15T03:36:37;40.97;;;25.33;;
37781;SDS011;23621;50.878;4.584;2022-12-15T03:39:04;42.65;;;25.42;;
37781;SDS011;23621;50.878;4.584;2022-12-15T03:41:31;42.65;;;26.23;;
37781;SDS011;23621;50.878;4.584;2022-12-15T03:43:58;39.33;;;25.05;;
37781;SDS011;23621;50.878;4.584;2022-12-15T03:46:25;42.33;;;27.55;;
37781;SDS011;23621;50.878;4.584;2022-12-15T03:48:52;41.08;;;26.20;;
37781;SDS011;23621;50.878;4.584;2022-12-15T03:51:19;39.60;;;26.40;;
37781;SDS011;23621;50.878;4.584;2022-12-15T03:53:46;44.20;;;27.92;;
37781;SDS011;23621;50.878;4.584;2022-12-15T03:56:14;43.33;;;28.27;;
37781;SDS011;23621;50.878;4.584;2022-12-15T03:58:42;47.60;;;29.55;;
37781;SDS011;23621;50.878;4.584;2022-12-15T04:01:25;43.33;;;27.52;;
37781;SDS011;23621;50.878;4.584;2022-12-15T04:03:54;44.47;;;27.60;;
37781;SDS011;23621;50.878;4.584;2022-12-15T04:06:26;44.40;;;26.42;;
37781;SDS011;23621;50.878;4.584;2022-12-15T04:08:54;44.80;;;27.35;;
37781;SDS011;23621;50.878;4.584;2022-12-15T04:11:21;48.10;;;27.63;;
37781;SDS011;23621;50.878;4.584;2022-12-15T04:13:48;41.92;;;26.52;;
37781;SDS011;23621;50.878;4.584;2022-12-15T04:16:15;43.05;;;26.83;;
37781;SDS011;23621;50.878;4.584;2022-12-15T04:18:45;41.88;;;26.67;;
37781;SDS011;23621;50.878;4.584;2022-12-15T04:21:33;52.20;;;27.48;;
37781;SDS011;23621;50.878;4.584;2022-12-15T04:24:00;42.78;;;27.90;;
37781;SDS011;23621;50.878;4.584;2022-12-15T04:26:45;44.17;;;26.83;;
37781;SDS011;23621;50.878;4.584;2022-12-15T04:29:31;46.08;;;28.55;;
37781;SDS011;23621;50.878;4.584;2022-12-15T04:32:16;49.80;;;27.90;;
37781;SDS011;23621;50.878;4.584;2022-12-15T04:35:01;50.42;;;29.02;;
37781;SDS011;23621;50.878;4.584;2022-12-15T04:37:47;48.28;;;29.00;;
37781;SDS011;23621;50.878;4.584;2022-12-15T04:40:32;45.53;;;28.17;;
37781;SDS011;23621;50.878;4.584;2022-12-15T04:43:18;48.13;;;27.65;;
37781;SDS011;23621;50.878;4.584;2022-12-15T04:46:04;45.75;;;27.73;;
37781;SDS011;23621;50.878;4.584;2022-12-15T04:48:50;43.28;;;25.98;;
37781;SDS011;23621;50.878;4.584;2022-12-15T04:51:35;48.17;;;25.00;;
37781;SDS011;23621;50.878;4.584;2022-12-15T04:54:21;43.40;;;27.27;;
37781;SDS011;23621;50.878;4.584;2022-12-15T04:57:06;44.58;;;26.80;;
37781;SDS011;23621;50.878;4.584;2022-12-15T04:59:51;44.17;;;27.25;;
37781;SDS011;23621;50.878;4.584;2022-12-15T05:02:37;40.00;;;25.30;;
37781;SDS011;23621;50.878;4.584;2022-12-15T05:05:22;43.20;;;25.65;;
37781;SDS011;23621;50.878;4.584;2022-12-15T05:08:07;47.80;;;26.38;;
37781;SDS011;23621;50.878;4.584;2022-12-15T05:10:53;43.80;;;25.88;;
37781;SDS011;23621;50.878;4.584;2022-12-15T05:13:38;40.90;;;25.90;;
37781;SDS011;23621;50.878;4.584;2022-12-15T05:16:24;42.83;;;25.92;;
37781;SDS011;23621;50.878;4.584;2022-12-15T05:19:09;41.55;;;25.92;;
37781;SDS011;23621;50.878;4.584;2022-12-15T05:21:54;37.45;;;25.10;;
37781;SDS011;23621;50.878;4.584;2022-12-15T05:24:40;41.33;;;26.23;;
37781;SDS011;23621;50.878;4.584;2022-12-15T05:27:25;43.47;;;26.73;;
37781;SDS011;23621;50.878;4.584;2022-12-15T05:30:11;46.05;;;26.90;;
37781;SDS011;23621;50.878;4.584;2022-12-15T05:32:56;41.63;;;26.75;;
37781;SDS011;23621;50.878;4.584;2022-12-15T05:35:23;44.83;;;27.20;;
37781;SDS011;23621;50.878;4.584;2022-12-15T05:37:50;44.30;;;27.45;;
37781;SDS011;23621;50.878;4.584;2022-12-15T05:40:17;44.00;;;28.42;;
37781;SDS011;23621;50.878;4.584;2022-12-15T05:42:43;48.92;;;28.60;;
37781;SDS011;23621;50.878;4.584;2022-12-15T05:45:15;45.47;;;29.52;;
37781;SDS011;23621;50.878;4.584;2022-12-15T05:47:42;47.60;;;29.40;;
37781;SDS011;23621;50.878;4.584;2022-12-15T05:50:09;49.15;;;29.30;;
37781;SDS011;23621;50.878;4.584;2022-12-15T05:52:36;52.22;;;30.35;;
37781;SDS011;23621;50.878;4.584;2022-12-15T05:55:02;47.38;;;29.65;;
37781;SDS011;23621;50.878;4.584;2022-12-15T05:57:31;45.15;;;28.83;;
37781;SDS011;23621;50.878;4.584;2022-12-15T05:59:57;48.50;;;28.38;;
37781;SDS011;23621;50.878;4.584;2022-12-15T06:02:24;44.72;;;27.98;;
37781;SDS011;23621;50.878;4.584;2022-12-15T06:04:53;42.35;;;27.17;;
37781;SDS011;23621;50.878;4.584;2022-12-15T06:07:20;47.90;;;28.23;;
37781;SDS011;23621;50.878;4.584;2022-12-15T06:09:47;45.25;;;28.35;;
37781;SDS011;23621;50.878;4.584;2022-12-15T06:12:14;46.03;;;27.35;;
37781;SDS011;23621;50.878;4.584;2022-12-15T06:14:41;63.45;;;38.70;;
37781;SDS011;23621;50.878;4.584;2022-12-15T06:17:08;51.33;;;31.48;;
37781;SDS011;23621;50.878;4.584;2022-12-15T06:19:35;48.05;;;28.67;;
37781;SDS011;23621;50.878;4.584;2022-12-15T06:22:02;45.63;;;27.85;;
37781;SDS011;23621;50.878;4.584;2022-12-15T06:24:29;45.40;;;28.23;;
37781;SDS011;23621;50.878;4.584;2022-12-15T06:26:56;47.72;;;28.50;;
37781;SDS011;23621;50.878;4.584;2022-12-15T06:29:23;48.35;;;28.83;;
37781;SDS011;23621;50.878;4.584;2022-12-15T06:31:50;46.72;;;28.67;;
37781;SDS011;23621;50.878;4.584;2022-12-15T06:34:17;47.60;;;27.48;;
37781;SDS011;23621;50.878;4.584;2022-12-15T06:36:43;46.63;;;27.40;;
37781;SDS011;23621;50.878;4.584;2022-12-15T06:39:11;44.35;;;27.50;;
37781;SDS011;23621;50.878;4.584;2022-12-15T06:41:41;47.25;;;27.83;;
37781;SDS011;23621;50.878;4.584;2022-12-15T06:44:11;45.47;;;28.80;;
37781;SDS011;23621;50.878;4.584;2022-12-15T06:46:39;45.83;;;28.33;;
37781;SDS011;23621;50.878;4.584;2022-12-15T06:49:07;50.05;;;28.98;;
37781;SDS011;23621;50.878;4.584;2022-12-15T06:51:34;45.53;;;27.13;;
37781;SDS011;23621;50.878;4.584;2022-12-15T06:54:01;43.63;;;26.80;;
37781;SDS011;23621;50.878;4.584;2022-12-15T06:56:31;47.72;;;28.35;;
37781;SDS011;23621;50.878;4.584;2022-12-15T06:59:01;46.85;;;28.90;;
37781;SDS011;23621;50.878;4.584;2022-12-15T07:01:30;49.25;;;28.58;;
37781;SDS011;23621;50.878;4.584;2022-12-15T07:03:57;43.90;;;28.50;;
37781;SDS011;23621;50.878;4.584;2022-12-15T07:06:27;49.30;;;28.35;;
37781;SDS011;23621;50.878;4.584;2022-12-15T07:08:57;43.63;;;28.13;;
37781;SDS011;23621;50.878;4.584;2022-12-15T07:11:24;45.20;;;27.85;;
37781;SDS011;23621;50.878;4.584;2022-12-15T07:13:51;47.55;;;28.83;;
37781;SDS011;23621;50.878;4.584;2022-12-15T07:16:19;43.47;;;28.20;;
37781;SDS011;23621;50.878;4.584;2022-12-15T07:18:47;43.42;;;27.02;;
37781;SDS011;23621;50.878;4.584;2022-12-15T07:21:15;45.40;;;27.80;;
37781;SDS011;23621;50.878;4.584;2022-12-15T07:23:42;49.55;;;30.45;;
37781;SDS011;23621;50.878;4.584;2022-12-15T07:26:26;54.03;;;29.27;;
37781;SDS011;23621;50.878;4.584;2022-12-15T07:28:53;47.90;;;29.33;;
37781;SDS011;23621;50.878;4.584;2022-12-15T07:31:21;51.17;;;29.80;;
37781;SDS011;23621;50.878;4.584;2022-12-15T07:33:48;52.78;;;29.73;;
37781;SDS011;23621;50.878;4.584;2022-12-15T07:36:17;47.63;;;29.73;;
37781;SDS011;23621;50.878;4.584;2022-12-15T07:38:44;51.88;;;30.02;;
37781;SDS011;23621;50.878;4.584;2022-12-15T07:41:16;51.05;;;28.73;;
37781;SDS011;23621;50.878;4.584;2022-12-15T07:43:44;50.25;;;28.10;;
37781;SDS011;23621;50.878;4.584;2022-12-15T07:46:13;48.55;;;27.27;;
37781;SDS011;23621;50.878;4.584;2022-12-15T07:48:40;48.78;;;28.45;;
37781;SDS011;23621;50.878;4.584;2022-12-15T07:51:07;44.67;;;28.38;;
37781;SDS011;23621;50.878;4.584;2022-12-15T07:53:44;44.33;;;28.23;;
37781;SDS011;23621;50.878;4.584;2022-12-15T07:56:15;43.08;;;26.92;;
37781;SDS011;23621;50.878;4.584;2022-12-15T07:58:46;47.78;;;28.17;;
37781;SDS011;23621;50.878;4.584;2022-12-15T08:01:13;49.33;;;29.15;;
37781;SDS011;23621;50.878;4.584;2022-12-15T08:03:41;44.95;;;27.65;;
37781;SDS011;23621;50.878;4.584;2022-12-15T08:06:09;40.72;;;26.58;;
37781;SDS011;23621;50.878;4.584;2022-12-15T08:08:38;48.13;;;28.58;;
37781;SDS011;23621;50.878;4.584;2022-12-15T08:11:10;49.92;;;31.02;;
37781;SDS011;23621;50.878;4.584;2022-12-15T08:13:39;48.75;;;30.15;;
37781;SDS011;23621;50.878;4.584;2022-12-15T08:16:26;49.03;;;30.98;;
37781;SDS011;23621;50.878;4.584;2022-12-15T08:18:54;50.78;;;31.83;;
37781;SDS011;23621;50.878;4.584;2022-12-15T08:21:22;56.45;;;32.30;;
37781;SDS011;23621;50.878;4.584;2022-12-15T08:23:49;51.28;;;30.52;;
37781;SDS011;23621;50.878;4.584;2022-12-15T08:26:17;52.30;;;29.30;;
37781;SDS011;23621;50.878;4.584;2022-12-15T08:28:48;45.55;;;26.98;;
37781;SDS011;23621;50.878;4.584;2022-12-15T08:31:16;51.70;;;28.42;;
37781;SDS011;23621;50.878;4.584;2022-12-15T08:33:45;46.45;;;28.55;;
37781;SDS011;23621;50.878;4.584;2022-12-15T08:36:13;47.05;;;28.48;;
37781;SDS011;23621;50.878;4.584;2022-12-15T08:38:42;46.45;;;27.08;;
37781;SDS011;23621;50.878;4.584;2022-12-15T08:41:17;47.28;;;27.15;;
37781;SDS011;23621;50.878;4.584;2022-12-15T08:43:49;48.95;;;29.08;;
37781;SDS011;23621;50.878;4.584;2022-12-15T08:46:17;47.97;;;27.48;;
37781;SDS011;23621;50.878;4.584;2022-12-15T08:48:46;44.15;;;27.52;;
37781;SDS011;23621;50.878;4.584;2022-12-15T08:51:14;43.10;;;26.83;;
37781;SDS011;23621;50.878;4.584;2022-12-15T08:53:41;47.65;;;28.38;;
37781;SDS011;23621;50.878;4.584;2022-12-15T08:56:09;48.60;;;28.10;;
37781;SDS011;23621;50.878;4.584;2022-12-15T08:58:41;51.75;;;28.27;;
37781;SDS011;23621;50.878;4.584;2022-12-15T09:01:11;47.67;;;28.98;;
37781;SDS011;23621;50.878;4.584;2022-12-15T09:03:48;40.85;;;27.30;;
37781;SDS011;23621;50.878;4.584;2022-12-15T09:06:16;42.38;;;27.63;;
37781;SDS011;23621;50.878;4.584;2022-12-15T09:08:45;45.75;;;27.92;;
37781;SDS011;23621;50.878;4.584;2022-12-15T09:11:15;44.40;;;27.88;;
37781;SDS011;23621;50.878;4.584;2022-12-15T09:13:42;44.67;;;26.80;;
37781;SDS011;23621;50.878;4.584;2022-12-15T09:16:10;42.92;;;27.20;;
37781;SDS011;23621;50.878;4.584;2022-12-15T09:18:43;42.35;;;27.00;;
37781;SDS011;23621;50.878;4.584;2022-12-15T09:21:12;43.22;;;27.65;;
37781;SDS011;23621;50.878;4.584;2022-12-15T09:23:40;46.92;;;25.80;;
37781;SDS011;23621;50.878;4.584;2022-12-15T09:28:38;40.25;;;26.13;;
37781;SDS011;23621;50.878;4.584;2022-12-15T09:31:06;54.63;;;27.95;;
37781;SDS011;23621;50.878;4.584;2022-12-15T09:33:40;39.83;;;24.67;;
37781;SDS011;23621;50.878;4.584;2022-12-15T09:36:08;42.03;;;24.73;;
37781;SDS011;23621;50.878;4.584;2022-12-15T09:38:39;41.03;;;24.80;;
37781;SDS011;23621;50.878;4.584;2022-12-15T09:43:35;42.30;;;25.85;;
37781;SDS011;23621;50.878;4.584;2022-12-15T09:48:51;41.33;;;25.45;;
37781;SDS011;23621;50.878;4.584;2022-12-15T09:51:23;45.53;;;27.10;;
37781;SDS011;23621;50.878;4.584;2022-12-15T09:54:00;41.13;;;24.80;;
37781;SDS011;23621;50.878;4.584;2022-12-15T09:56:41;42.67;;;26.83;;
37781;SDS011;23621;50.878;4.584;2022-12-15T10:07:32;45.42;;;25.90;;
37781;SDS011;23621;50.878;4.584;2022-12-15T10:10:14;42.60;;;26.70;;
37781;SDS011;23621;50.878;4.584;2022-12-15T10:12:51;43.92;;;26.65;;
37781;SDS011;23621;50.878;4.584;2022-12-15T10:16:02;44.28;;;26.58;;
37781;SDS011;23621;50.878;4.584;2022-12-15T10:18:40;38.97;;;26.42;;
37781;SDS011;23621;50.878;4.584;2022-12-15T10:21:25;38.53;;;25.35;;
37781;SDS011;23621;50.878;4.584;2022-12-15T10:23:56;40.58;;;25.83;;
37781;SDS011;23621;50.878;4.584;2022-12-15T10:27:32;39.25;;;25.52;;
37781;SDS011;23621;50.878;4.584;2022-12-15T10:30:17;37.00;;;24.55;;
37781;SDS011;23621;50.878;4.584;2022-12-15T10:35:32;39.95;;;26.42;;
37781;SDS011;23621;50.878;4.584;2022-12-15T10:38:02;41.45;;;26.42;;
37781;SDS011;23621;50.878;4.584;2022-12-15T10:43:23;42.58;;;27.30;;
37781;SDS011;23621;50.878;4.584;2022-12-15T10:46:01;45.63;;;28.52;;
37781;SDS011;23621;50.878;4.584;2022-12-15T10:51:51;42.30;;;28.88;;
37781;SDS011;23621;50.878;4.584;2022-12-15T10:54:25;49.33;;;30.23;;
37781;SDS011;23621;50.878;4.584;2022-12-15T10:56:58;52.05;;;31.60;;
37781;SDS011;23621;50.878;4.584;2022-12-15T11:05:05;49.55;;;30.83;;
37781;SDS011;23621;50.878;4.584;2022-12-15T11:10:20;47.25;;;29.23;;
37781;SDS011;23621;50.878;4.584;2022-12-15T11:12:55;45.50;;;27.75;;
37781;SDS011;23621;50.878;4.584;2022-12-15T11:15:48;45.72;;;28.45;;
37781;SDS011;23621;50.878;4.584;2022-12-15T11:18:22;44.42;;;27.38;;
37781;SDS011;23621;50.878;4.584;2022-12-15T11:21:11;44.72;;;27.40;;
37781;SDS011;23621;50.878;4.584;2022-12-15T11:29:12;43.17;;;26.67;;
37781;SDS011;23621;50.878;4.584;2022-12-15T11:31:42;41.38;;;25.92;;
37781;SDS011;23621;50.878;4.584;2022-12-15T11:34:11;41.17;;;26.23;;
37781;SDS011;23621;50.878;4.584;2022-12-15T11:47:15;34.53;;;21.98;;
37781;SDS011;23621;50.878;4.584;2022-12-15T11:55:53;32.67;;;20.48;;
37781;SDS011;23621;50.878;4.584;2022-12-15T12:01:50;28.83;;;18.55;;
37781;SDS011;23621;50.878;4.584;2022-12-15T12:04:29;29.42;;;18.00;;
37781;SDS011;23621;50.878;4.584;2022-12-15T12:10:02;25.85;;;17.15;;
37781;SDS011;23621;50.878;4.584;2022-12-15T12:12:41;29.75;;;18.52;;
37781;SDS011;23621;50.878;4.584;2022-12-15T12:15:21;29.92;;;17.95;;
37781;SDS011;23621;50.878;4.584;2022-12-15T12:17:57;25.88;;;18.02;;
37781;SDS011;23621;50.878;4.584;2022-12-15T12:20:39;27.55;;;17.98;;
37781;SDS011;23621;50.878;4.584;2022-12-15T12:23:23;28.42;;;18.38;;
37781;SDS011;23621;50.878;4.584;2022-12-15T12:37:24;31.30;;;19.65;;
37781;SDS011;23621;50.878;4.584;2022-12-15T12:40:01;26.65;;;17.55;;
37781;SDS011;23621;50.878;4.584;2022-12-15T12:42:34;29.17;;;19.58;;
37781;SDS011;23621;50.878;4.584;2022-12-15T12:45:10;27.30;;;18.55;;
37781;SDS011;23621;50.878;4.584;2022-12-15T12:47:39;24.60;;;17.08;;
37781;SDS011;23621;50.878;4.584;2022-12-15T12:50:14;26.90;;;17.63;;
37781;SDS011;23621;50.878;4.584;2022-12-15T12:52:53;24.95;;;17.27;;
37781;SDS011;23621;50.878;4.584;2022-12-15T12:55:23;27.08;;;18.17;;
37781;SDS011;23621;50.878;4.584;2022-12-15T12:57:52;27.95;;;18.20;;
37781;SDS011;23621;50.878;4.584;2022-12-15T13:00:26;26.85;;;18.13;;
37781;SDS011;23621;50.878;4.584;2022-12-15T13:03:17;25.85;;;18.42;;
37781;SDS011;23621;50.878;4.584;2022-12-15T13:05:43;27.95;;;17.60;;
37781;SDS011;23621;50.878;4.584;2022-12-15T13:10:41;26.02;;;18.08;;
37781;SDS011;23621;50.878;4.584;2022-12-15T13:24:34;27.40;;;17.48;;
37781;SDS011;23621;50.878;4.584;2022-12-15T13:27:21;25.67;;;17.10;;
37781;SDS011;23621;50.878;4.584;2022-12-15T13:29:56;24.58;;;16.48;;
37781;SDS011;23621;50.878;4.584;2022-12-15T13:32:33;24.73;;;17.58;;
37781;SDS011;23621;50.878;4.584;2022-12-15T13:35:24;27.75;;;19.23;;
37781;SDS011;23621;50.878;4.584;2022-12-15T13:37:58;25.85;;;18.33;;
37781;SDS011;23621;50.878;4.584;2022-12-15T13:40:29;24.98;;;16.52;;
37781;SDS011;23621;50.878;4.584;2022-12-15T13:45:54;22.20;;;15.07;;
37781;SDS011;23621;50.878;4.584;2022-12-15T13:54:03;22.65;;;15.27;;
37781;SDS011;23621;50.878;4.584;2022-12-15T13:56:45;22.80;;;15.63;;
37781;SDS011;23621;50.878;4.584;2022-12-15T14:01:51;22.48;;;15.93;;
37781;SDS011;23621;50.878;4.584;2022-12-15T14:04:19;23.70;;;15.82;;
37781;SDS011;23621;50.878;4.584;2022-12-15T14:06:57;24.95;;;17.60;;
37781;SDS011;23621;50.878;4.584;2022-12-15T14:09:31;23.17;;;16.50;;
37781;SDS011;23621;50.878;4.584;2022-12-15T14:12:01;24.98;;;16.00;;
37781;SDS011;23621;50.878;4.584;2022-12-15T14:14:32;24.08;;;14.88;;
37781;SDS011;23621;50.878;4.584;2022-12-15T14:17:06;26.48;;;14.30;;
37781;SDS011;23621;50.878;4.584;2022-12-15T14:19:36;22.17;;;14.93;;
37781;SDS011;23621;50.878;4.584;2022-12-15T14:22:23;23.08;;;14.63;;
37781;SDS011;23621;50.878;4.584;2022-12-15T14:25:07;20.00;;;13.40;;
37781;SDS011;23621;50.878;4.584;2022-12-15T14:27:43;19.95;;;13.18;;
37781;SDS011;23621;50.878;4.584;2022-12-15T14:30:23;22.50;;;14.10;;
37781;SDS011;23621;50.878;4.584;2022-12-15T14:32:56;23.00;;;15.60;;
37781;SDS011;23621;50.878;4.584;2022-12-15T14:35:36;25.88;;;16.13;;
37781;SDS011;23621;50.878;4.584;2022-12-15T14:38:39;28.25;;;18.08;;
37781;SDS011;23621;50.878;4.584;2022-12-15T14:41:18;31.67;;;19.13;;
37781;SDS011;23621;50.878;4.584;2022-12-15T14:43:47;28.50;;;19.50;;
37781;SDS011;23621;50.878;4.584;2022-12-15T14:46:36;29.35;;;18.35;;
37781;SDS011;23621;50.878;4.584;2022-12-15T14:49:04;28.10;;;18.67;;
37781;SDS011;23621;50.878;4.584;2022-12-15T14:51:40;29.35;;;19.45;;
37781;SDS011;23621;50.878;4.584;2022-12-15T14:59:46;33.80;;;20.92;;
37781;SDS011;23621;50.878;4.584;2022-12-15T15:02:18;30.52;;;20.05;;
37781;SDS011;23621;50.878;4.584;2022-12-15T15:04:58;32.42;;;20.70;;
37781;SDS011;23621;50.878;4.584;2022-12-15T15:07:31;29.50;;;20.70;;
37781;SDS011;23621;50.878;4.584;2022-12-15T15:09:59;31.38;;;19.73;;
37781;SDS011;23621;50.878;4.584;2022-12-15T15:12:40;32.58;;;21.88;;
37781;SDS011;23621;50.878;4.584;2022-12-15T15:15:13;32.80;;;21.60;;
37781;SDS011;23621;50.878;4.584;2022-12-15T15:17:49;31.35;;;20.60;;
37781;SDS011;23621;50.878;4.584;2022-12-15T15:20:20;30.55;;;21.85;;
37781;SDS011;23621;50.878;4.584;2022-12-15T15:30:47;35.60;;;21.48;;
37781;SDS011;23621;50.878;4.584;2022-12-15T15:33:17;33.05;;;22.25;;
37781;SDS011;23621;50.878;4.584;2022-12-15T15:35:50;33.13;;;20.52;;
37781;SDS011;23621;50.878;4.584;2022-12-15T15:40:53;35.00;;;22.38;;
37781;SDS011;23621;50.878;4.584;2022-12-15T15:43:21;35.35;;;22.33;;
37781;SDS011;23621;50.878;4.584;2022-12-15T15:45:50;32.88;;;21.83;;
37781;SDS011;23621;50.878;4.584;2022-12-15T15:48:34;32.15;;;22.08;;
37781;SDS011;23621;50.878;4.584;2022-12-15T15:51:35;35.90;;;22.25;;
37781;SDS011;23621;50.878;4.584;2022-12-15T15:54:07;35.15;;;22.42;;
37781;SDS011;23621;50.878;4.584;2022-12-15T15:56:39;36.20;;;22.98;;
37781;SDS011;23621;50.878;4.584;2022-12-15T15:59:25;32.72;;;21.88;;
37781;SDS011;23621;50.878;4.584;2022-12-15T16:01:54;34.22;;;24.08;;
37781;SDS011;23621;50.878;4.584;2022-12-15T16:04:22;67.13;;;37.63;;
37781;SDS011;23621;50.878;4.584;2022-12-15T16:06:49;71.32;;;39.65;;
37781;SDS011;23621;50.878;4.584;2022-12-15T16:09:17;61.47;;;36.72;;
37781;SDS011;23621;50.878;4.584;2022-12-15T16:11:44;104.07;;;54.90;;
37781;SDS011;23621;50.878;4.584;2022-12-15T16:14:12;96.10;;;57.20;;
37781;SDS011;23621;50.878;4.584;2022-12-15T16:16:41;79.35;;;47.65;;
37781;SDS011;23621;50.878;4.584;2022-12-15T16:19:09;69.13;;;43.75;;
37781;SDS011;23621;50.878;4.584;2022-12-15T16:21:37;52.97;;;33.92;;
37781;SDS011;23621;50.878;4.584;2022-12-15T16:24:13;48.08;;;31.42;;
37781;SDS011;23621;50.878;4.584;2022-12-15T16:26:47;42.95;;;29.77;;
37781;SDS011;23621;50.878;4.584;2022-12-15T16:29:17;39.75;;;25.92;;
37781;SDS011;23621;50.878;4.584;2022-12-15T16:31:45;33.22;;;24.48;;
37781;SDS011;23621;50.878;4.584;2022-12-15T16:34:13;36.70;;;24.60;;
37781;SDS011;23621;50.878;4.584;2022-12-15T16:36:45;39.83;;;24.75;;
37781;SDS011;23621;50.878;4.584;2022-12-15T16:41:51;61.90;;;35.28;;
37781;SDS011;23621;50.878;4.584;2022-12-15T16:44:20;38.95;;;24.85;;
37781;SDS011;23621;50.878;4.584;2022-12-15T16:46:47;37.90;;;24.83;;
37781;SDS011;23621;50.878;4.584;2022-12-15T16:49:14;51.75;;;36.00;;
37781;SDS011;23621;50.878;4.584;2022-12-15T16:51:43;44.58;;;30.67;;
37781;SDS011;23621;50.878;4.584;2022-12-15T16:54:22;51.35;;;33.42;;
37781;SDS011;23621;50.878;4.584;2022-12-15T16:56:55;43.88;;;28.98;;
37781;SDS011;23621;50.878;4.584;2022-12-15T16:59:23;43.65;;;28.25;;
37781;SDS011;23621;50.878;4.584;2022-12-15T17:02:00;41.08;;;26.33;;
37781;SDS011;23621;50.878;4.584;2022-12-15T17:04:27;35.78;;;23.35;;
37781;SDS011;23621;50.878;4.584;2022-12-15T17:06:54;34.63;;;22.88;;
37781;SDS011;23621;50.878;4.584;2022-12-15T17:09:21;59.45;;;44.58;;
37781;SDS011;23621;50.878;4.584;2022-12-15T17:11:50;43.20;;;28.23;;
37781;SDS011;23621;50.878;4.584;2022-12-15T17:14:17;34.78;;;25.65;;
37781;SDS011;23621;50.878;4.584;2022-12-15T17:16:44;50.67;;;30.75;;
37781;SDS011;23621;50.878;4.584;2022-12-15T17:19:11;49.78;;;29.63;;
37781;SDS011;23621;50.878;4.584;2022-12-15T17:21:46;48.08;;;29.95;;
37781;SDS011;23621;50.878;4.584;2022-12-15T17:24:16;52.47;;;30.63;;
37781;SDS011;23621;50.878;4.584;2022-12-15T17:26:45;44.05;;;27.95;;
37781;SDS011;23621;50.878;4.584;2022-12-15T17:29:14;48.50;;;28.48;;